sensor_id;sensor_type;location;lat;lon;timestamp;P1;durP1;ratioP1;P2;durP2;ratioP2
37001;SDS011;22913;51.910;8.374;2023-04-03T00:01:23;7.77;;;3.17;;
37001;SDS011;22913;51.910;8.374;2023-04-03T00:04:09;7.40;;;3.17;;
37001;SDS011;22913;51.910;8.374;2023-04-03T00:06:55;12.93;;;4.50;;
37001;SDS011;22913;51.910;8.374;2023-04-03T00:09:42;13.53;;;7.13;;
37001;SDS011;22913;51.910;8.374;2023-04-03T00:12:27;9.83;;;4.83;;
37001;SDS011;22913;51.910;8.374;2023-04-03T00:15:13;10.80;;;4.70;;
37001;SDS011;22913;51.910;8.374;2023-04-03T00:17:59;10.30;;;4.33;;
37001;SDS011;22913;51.910;8.374;2023-04-03T00:20:44;8.67;;;5.03;;
37001;SDS011;22913;51.910;8.374;2023-04-03T00:23:30;9.50;;;4.43;;
37001;SDS011;22913;51.910;8.374;2023-04-03T00:26:17;8.23;;;3.30;;
37001;SDS011;22913;51.910;8.374;2023-04-03T00:29:04;6.13;;;3.03;;
37001;SDS011;22913;51.910;8.374;2023-04-03T00:31:50;3.77;;;2.50;;
37001;SDS011;22913;51.910;8.374;2023-04-03T00:34:35;8.17;;;3.30;;
37001;SDS011;22913;51.910;8.374;2023-04-03T00:37:21;8.67;;;3.57;;
37001;SDS011;22913;51.910;8.374;2023-04-03T00:40:07;4.27;;;3.20;;
37001;SDS011;22913;51.910;8.374;2023-04-03T00:42:56;3.87;;;2.83;;
37001;SDS011;22913;51.910;8.374;2023-04-03T00:45:43;3.50;;;2.63;;
37001;SDS011;22913;51.910;8.374;2023-04-03T00:48:32;3.93;;;2.40;;
37001;SDS011;22913;51.910;8.374;2023-04-03T00:51:20;3.17;;;1.83;;
37001;SDS011;22913;51.910;8.374;2023-04-03T00:54:08;6.97;;;2.77;;
37001;SDS011;22913;51.910;8.374;2023-04-03T00:56:54;5.20;;;2.63;;
37001;SDS011;22913;51.910;8.374;2023-04-03T00:59:44;6.27;;;3.27;;
37001;SDS011;22913;51.910;8.374;2023-04-03T01:02:34;4.73;;;2.63;;
37001;SDS011;22913;51.910;8.374;2023-04-03T01:05:20;6.60;;;3.13;;
37001;SDS011;22913;51.910;8.374;2023-04-03T01:08:06;6.07;;;3.70;;
37001;SDS011;22913;51.910;8.374;2023-04-03T01:10:52;11.40;;;5.93;;
37001;SDS011;22913;51.910;8.374;2023-04-03T01:13:37;9.03;;;4.80;;
37001;SDS011;22913;51.910;8.374;2023-04-03T01:16:25;7.77;;;4.73;;
37001;SDS011;22913;51.910;8.374;2023-04-03T01:19:12;12.27;;;6.50;;
37001;SDS011;22913;51.910;8.374;2023-04-03T01:22:03;9.80;;;6.40;;
37001;SDS011;22913;51.910;8.374;2023-04-03T01:24:58;9.20;;;4.57;;
37001;SDS011;22913;51.910;8.374;2023-04-03T01:27:43;5.97;;;2.80;;
37001;SDS011;22913;51.910;8.374;2023-04-03T01:30:32;4.37;;;2.30;;
37001;SDS011;22913;51.910;8.374;2023-04-03T01:33:20;6.73;;;2.30;;
37001;SDS011;22913;51.910;8.374;2023-04-03T01:36:08;6.07;;;2.00;;
37001;SDS011;22913;51.910;8.374;2023-04-03T01:38:58;5.43;;;2.50;;
37001;SDS011;22913;51.910;8.374;2023-04-03T01:41:44;6.23;;;2.40;;
37001;SDS011;22913;51.910;8.374;2023-04-03T01:44:30;4.90;;;2.00;;
37001;SDS011;22913;51.910;8.374;2023-04-03T01:47:15;4.50;;;2.13;;
37001;SDS011;22913;51.910;8.374;2023-04-03T01:50:03;4.60;;;1.90;;
37001;SDS011;22913;51.910;8.374;2023-04-03T01:52:48;4.80;;;1.73;;
37001;SDS011;22913;51.910;8.374;2023-04-03T01:55:34;5.40;;;2.13;;
37001;SDS011;22913;51.910;8.374;2023-04-03T01:58:20;4.63;;;1.57;;
37001;SDS011;22913;51.910;8.374;2023-04-03T02:01:05;3.77;;;2.03;;
37001;SDS011;22913;51.910;8.374;2023-04-03T02:03:51;4.03;;;1.70;;
37001;SDS011;22913;51.910;8.374;2023-04-03T02:06:38;4.30;;;2.23;;
37001;SDS011;22913;51.910;8.374;2023-04-03T02:09:24;5.20;;;2.40;;
37001;SDS011;22913;51.910;8.374;2023-04-03T02:12:09;4.83;;;1.73;;
37001;SDS011;22913;51.910;8.374;2023-04-03T02:14:55;4.70;;;1.73;;
37001;SDS011;22913;51.910;8.374;2023-04-03T02:17:41;4.37;;;2.20;;
37001;SDS011;22913;51.910;8.374;2023-04-03T02:20:26;8.50;;;2.43;;
37001;SDS011;22913;51.910;8.374;2023-04-03T02:23:13;7.70;;;3.20;;
37001;SDS011;22913;51.910;8.374;2023-04-03T02:26:03;5.97;;;2.83;;
37001;SDS011;22913;51.910;8.374;2023-04-03T02:28:50;5.13;;;3.23;;
37001;SDS011;22913;51.910;8.374;2023-04-03T02:31:35;3.67;;;2.47;;
37001;SDS011;22913;51.910;8.374;2023-04-03T02:34:21;7.17;;;2.77;;
37001;SDS011;22913;51.910;8.374;2023-04-03T02:37:06;5.67;;;2.80;;
37001;SDS011;22913;51.910;8.374;2023-04-03T02:39:53;6.40;;;3.30;;
37001;SDS011;22913;51.910;8.374;2023-04-03T02:42:39;7.53;;;3.20;;
37001;SDS011;22913;51.910;8.374;2023-04-03T02:45:24;9.90;;;3.17;;
37001;SDS011;22913;51.910;8.374;2023-04-03T02:48:10;10.80;;;4.27;;
37001;SDS011;22913;51.910;8.374;2023-04-03T02:50:56;8.13;;;4.20;;
37001;SDS011;22913;51.910;8.374;2023-04-03T02:53:41;8.27;;;4.07;;
37001;SDS011;22913;51.910;8.374;2023-04-03T02:56:28;6.00;;;3.40;;
37001;SDS011;22913;51.910;8.374;2023-04-03T02:59:14;8.47;;;4.00;;
37001;SDS011;22913;51.910;8.374;2023-04-03T03:01:59;6.43;;;2.90;;
37001;SDS011;22913;51.910;8.374;2023-04-03T03:04:45;6.37;;;3.00;;
37001;SDS011;22913;51.910;8.374;2023-04-03T03:07:31;7.47;;;2.53;;
37001;SDS011;22913;51.910;8.374;2023-04-03T03:10:17;4.73;;;2.00;;
37001;SDS011;22913;51.910;8.374;2023-04-03T03:13:04;4.87;;;2.07;;
37001;SDS011;22913;51.910;8.374;2023-04-03T03:15:49;4.27;;;1.97;;
37001;SDS011;22913;51.910;8.374;2023-04-03T03:18:35;3.47;;;2.03;;
37001;SDS011;22913;51.910;8.374;2023-04-03T03:21:21;2.67;;;2.10;;
37001;SDS011;22913;51.910;8.374;2023-04-03T03:24:06;3.97;;;1.57;;
37001;SDS011;22913;51.910;8.374;2023-04-03T03:26:52;4.23;;;2.00;;
37001;SDS011;22913;51.910;8.374;2023-04-03T03:29:39;4.57;;;2.07;;
37001;SDS011;22913;51.910;8.374;2023-04-03T03:32:25;6.50;;;2.00;;
37001;SDS011;22913;51.910;8.374;2023-04-03T03:35:10;5.27;;;1.67;;
37001;SDS011;22913;51.910;8.374;2023-04-03T03:37:56;4.23;;;1.87;;
37001;SDS011;22913;51.910;8.374;2023-04-03T03:40:42;4.67;;;1.60;;
37001;SDS011;22913;51.910;8.374;2023-04-03T03:43:27;6.67;;;2.07;;
37001;SDS011;22913;51.910;8.374;2023-04-03T03:46:14;3.20;;;1.67;;
37001;SDS011;22913;51.910;8.374;2023-04-03T03:49:00;2.50;;;1.70;;
37001;SDS011;22913;51.910;8.374;2023-04-03T03:51:46;2.20;;;1.60;;
37001;SDS011;22913;51.910;8.374;2023-04-03T03:54:31;3.43;;;1.87;;
37001;SDS011;22913;51.910;8.374;2023-04-03T03:57:17;5.10;;;1.70;;
37001;SDS011;22913;51.910;8.374;2023-04-03T04:00:03;5.47;;;1.60;;
37001;SDS011;22913;51.910;8.374;2023-04-03T04:02:52;5.40;;;1.70;;
37001;SDS011;22913;51.910;8.374;2023-04-03T04:05:38;5.57;;;1.70;;
37001;SDS011;22913;51.910;8.374;2023-04-03T04:08:23;4.63;;;2.40;;
37001;SDS011;22913;51.910;8.374;2023-04-03T04:11:09;5.00;;;1.63;;
37001;SDS011;22913;51.910;8.374;2023-04-03T04:13:55;5.07;;;1.87;;
37001;SDS011;22913;51.910;8.374;2023-04-03T04:16:40;3.50;;;1.47;;
37001;SDS011;22913;51.910;8.374;2023-04-03T04:19:27;2.57;;;1.73;;
37001;SDS011;22913;51.910;8.374;2023-04-03T04:22:13;3.10;;;1.63;;
37001;SDS011;22913;51.910;8.374;2023-04-03T04:24:59;2.97;;;1.83;;
37001;SDS011;22913;51.910;8.374;2023-04-03T04:27:45;6.13;;;1.77;;
37001;SDS011;22913;51.910;8.374;2023-04-03T04:30:31;4.17;;;1.90;;
37001;SDS011;22913;51.910;8.374;2023-04-03T04:33:16;5.73;;;1.90;;
37001;SDS011;22913;51.910;8.374;2023-04-03T04:36:03;3.87;;;2.13;;
37001;SDS011;22913;51.910;8.374;2023-04-03T04:38:49;3.97;;;2.07;;
37001;SDS011;22913;51.910;8.374;2023-04-03T04:41:36;2.00;;;1.80;;
37001;SDS011;22913;51.910;8.374;2023-04-03T04:44:21;3.60;;;1.67;;
37001;SDS011;22913;51.910;8.374;2023-04-03T04:47:07;5.97;;;1.73;;
37001;SDS011;22913;51.910;8.374;2023-04-03T04:49:53;5.60;;;1.90;;
37001;SDS011;22913;51.910;8.374;2023-04-03T04:52:40;3.60;;;1.83;;
37001;SDS011;22913;51.910;8.374;2023-04-03T04:55:26;4.43;;;2.00;;
37001;SDS011;22913;51.910;8.374;2023-04-03T04:58:11;4.20;;;1.70;;
37001;SDS011;22913;51.910;8.374;2023-04-03T05:00:58;2.63;;;1.80;;
37001;SDS011;22913;51.910;8.374;2023-04-03T05:03:44;6.70;;;2.10;;
37001;SDS011;22913;51.910;8.374;2023-04-03T05:06:31;3.60;;;2.10;;
37001;SDS011;22913;51.910;8.374;2023-04-03T05:09:20;5.00;;;1.80;;
37001;SDS011;22913;51.910;8.374;2023-04-03T05:12:06;7.13;;;2.00;;
37001;SDS011;22913;51.910;8.374;2023-04-03T05:14:51;4.37;;;1.40;;
37001;SDS011;22913;51.910;8.374;2023-04-03T05:17:37;7.33;;;2.50;;
37001;SDS011;22913;51.910;8.374;2023-04-03T05:20:23;5.00;;;1.90;;
37001;SDS011;22913;51.910;8.374;2023-04-03T05:23:09;4.43;;;1.93;;
37001;SDS011;22913;51.910;8.374;2023-04-03T05:25:56;2.07;;;1.70;;
37001;SDS011;22913;51.910;8.374;2023-04-03T05:28:41;7.07;;;2.20;;
37001;SDS011;22913;51.910;8.374;2023-04-03T05:31:27;4.20;;;2.03;;
37001;SDS011;22913;51.910;8.374;2023-04-03T05:34:13;3.10;;;2.20;;
37001;SDS011;22913;51.910;8.374;2023-04-03T05:36:59;3.50;;;1.83;;
37001;SDS011;22913;51.910;8.374;2023-04-03T05:39:46;4.93;;;1.93;;
37001;SDS011;22913;51.910;8.374;2023-04-03T05:42:33;3.57;;;2.30;;
37001;SDS011;22913;51.910;8.374;2023-04-03T05:45:19;6.70;;;2.00;;
37001;SDS011;22913;51.910;8.374;2023-04-03T05:48:05;3.40;;;1.90;;
37001;SDS011;22913;51.910;8.374;2023-04-03T05:50:50;6.07;;;2.20;;
37001;SDS011;22913;51.910;8.374;2023-04-03T05:53:36;2.47;;;1.70;;
37001;SDS011;22913;51.910;8.374;2023-04-03T05:56:22;3.67;;;2.17;;
37001;SDS011;22913;51.910;8.374;2023-04-03T05:59:09;2.40;;;1.77;;
37001;SDS011;22913;51.910;8.374;2023-04-03T06:01:54;2.97;;;1.77;;
37001;SDS011;22913;51.910;8.374;2023-04-03T06:04:40;6.97;;;1.90;;
37001;SDS011;22913;51.910;8.374;2023-04-03T06:07:25;7.23;;;2.53;;
37001;SDS011;22913;51.910;8.374;2023-04-03T06:10:12;3.83;;;1.93;;
37001;SDS011;22913;51.910;8.374;2023-04-03T06:12:58;2.87;;;1.90;;
37001;SDS011;22913;51.910;8.374;2023-04-03T06:15:45;4.47;;;2.00;;
37001;SDS011;22913;51.910;8.374;2023-04-03T06:18:31;3.77;;;1.73;;
37001;SDS011;22913;51.910;8.374;2023-04-03T06:21:17;5.47;;;2.00;;
37001;SDS011;22913;51.910;8.374;2023-04-03T06:24:02;2.60;;;1.97;;
37001;SDS011;22913;51.910;8.374;2023-04-03T06:26:49;5.10;;;1.90;;
37001;SDS011;22913;51.910;8.374;2023-04-03T06:29:35;6.73;;;2.13;;
37001;SDS011;22913;51.910;8.374;2023-04-03T06:32:22;4.47;;;2.33;;
37001;SDS011;22913;51.910;8.374;2023-04-03T06:35:09;5.77;;;1.83;;
37001;SDS011;22913;51.910;8.374;2023-04-03T06:37:54;3.37;;;2.00;;
37001;SDS011;22913;51.910;8.374;2023-04-03T06:40:40;3.20;;;2.07;;
37001;SDS011;22913;51.910;8.374;2023-04-03T06:43:26;7.93;;;3.27;;
37001;SDS011;22913;51.910;8.374;2023-04-03T06:46:15;4.40;;;2.07;;
37001;SDS011;22913;51.910;8.374;2023-04-03T06:49:02;6.97;;;3.87;;
37001;SDS011;22913;51.910;8.374;2023-04-03T06:51:48;8.87;;;4.30;;
37001;SDS011;22913;51.910;8.374;2023-04-03T06:54:34;8.70;;;4.80;;
37001;SDS011;22913;51.910;8.374;2023-04-03T06:57:19;9.20;;;4.37;;
37001;SDS011;22913;51.910;8.374;2023-04-03T07:00:06;14.17;;;8.03;;
37001;SDS011;22913;51.910;8.374;2023-04-03T07:02:53;11.87;;;5.87;;
37001;SDS011;22913;51.910;8.374;2023-04-03T07:05:41;9.40;;;3.33;;
37001;SDS011;22913;51.910;8.374;2023-04-03T07:08:28;6.67;;;4.03;;
37001;SDS011;22913;51.910;8.374;2023-04-03T07:11:14;8.23;;;4.07;;
37001;SDS011;22913;51.910;8.374;2023-04-03T07:14:01;4.97;;;3.40;;
37001;SDS011;22913;51.910;8.374;2023-04-03T07:16:47;8.83;;;3.80;;
37001;SDS011;22913;51.910;8.374;2023-04-03T07:19:32;6.10;;;3.00;;
37001;SDS011;22913;51.910;8.374;2023-04-03T07:22:19;5.83;;;3.33;;
37001;SDS011;22913;51.910;8.374;2023-04-03T07:25:05;5.80;;;2.70;;
37001;SDS011;22913;51.910;8.374;2023-04-03T07:27:51;3.53;;;2.23;;
37001;SDS011;22913;51.910;8.374;2023-04-03T07:30:42;4.37;;;2.37;;
37001;SDS011;22913;51.910;8.374;2023-04-03T07:33:29;2.87;;;1.83;;
37001;SDS011;22913;51.910;8.374;2023-04-03T07:36:17;2.87;;;1.50;;
37001;SDS011;22913;51.910;8.374;2023-04-03T07:39:07;5.27;;;2.03;;
37001;SDS011;22913;51.910;8.374;2023-04-03T07:41:52;2.67;;;1.90;;
37001;SDS011;22913;51.910;8.374;2023-04-03T07:44:39;5.57;;;3.40;;
37001;SDS011;22913;51.910;8.374;2023-04-03T07:47:24;3.83;;;2.40;;
37001;SDS011;22913;51.910;8.374;2023-04-03T07:50:10;3.77;;;2.37;;
37001;SDS011;22913;51.910;8.374;2023-04-03T07:52:56;6.47;;;2.30;;
37001;SDS011;22913;51.910;8.374;2023-04-03T07:55:43;2.10;;;1.73;;
37001;SDS011;22913;51.910;8.374;2023-04-03T07:58:31;4.17;;;1.93;;
37001;SDS011;22913;51.910;8.374;2023-04-03T08:01:17;3.53;;;1.63;;
37001;SDS011;22913;51.910;8.374;2023-04-03T08:04:03;4.17;;;1.47;;
37001;SDS011;22913;51.910;8.374;2023-04-03T08:06:49;2.43;;;1.43;;
37001;SDS011;22913;51.910;8.374;2023-04-03T08:09:34;4.93;;;1.43;;
37001;SDS011;22913;51.910;8.374;2023-04-03T08:12:21;3.33;;;1.30;;
37001;SDS011;22913;51.910;8.374;2023-04-03T08:15:07;3.03;;;1.10;;
37001;SDS011;22913;51.910;8.374;2023-04-03T08:17:53;1.23;;;1.00;;
37001;SDS011;22913;51.910;8.374;2023-04-03T08:20:39;4.30;;;1.30;;
37001;SDS011;22913;51.910;8.374;2023-04-03T08:23:25;3.87;;;1.30;;
37001;SDS011;22913;51.910;8.374;2023-04-03T08:26:12;3.37;;;1.20;;
37001;SDS011;22913;51.910;8.374;2023-04-03T08:29:00;1.27;;;1.17;;
37001;SDS011;22913;51.910;8.374;2023-04-03T08:31:45;3.07;;;0.87;;
37001;SDS011;22913;51.910;8.374;2023-04-03T08:34:33;2.90;;;1.17;;
37001;SDS011;22913;51.910;8.374;2023-04-03T08:37:20;2.93;;;1.57;;
37001;SDS011;22913;51.910;8.374;2023-04-03T08:40:07;1.40;;;1.20;;
37001;SDS011;22913;51.910;8.374;2023-04-03T08:43:01;3.77;;;1.30;;
37001;SDS011;22913;51.910;8.374;2023-04-03T08:46:05;2.03;;;1.30;;
37001;SDS011;22913;51.910;8.374;2023-04-03T08:48:58;3.07;;;1.50;;
37001;SDS011;22913;51.910;8.374;2023-04-03T08:51:45;2.37;;;1.10;;
37001;SDS011;22913;51.910;8.374;2023-04-03T08:54:33;2.80;;;1.37;;
37001;SDS011;22913;51.910;8.374;2023-04-03T08:57:25;2.80;;;1.47;;
37001;SDS011;22913;51.910;8.374;2023-04-03T09:00:16;1.93;;;1.03;;
37001;SDS011;22913;51.910;8.374;2023-04-03T09:03:05;2.60;;;1.40;;
37001;SDS011;22913;51.910;8.374;2023-04-03T09:05:57;2.97;;;1.60;;
37001;SDS011;22913;51.910;8.374;2023-04-03T09:08:48;3.63;;;2.00;;
37001;SDS011;22913;51.910;8.374;2023-04-03T09:11:40;4.07;;;2.20;;
37001;SDS011;22913;51.910;8.374;2023-04-03T09:14:33;5.77;;;4.00;;
37001;SDS011;22913;51.910;8.374;2023-04-03T09:17:25;3.83;;;2.43;;
37001;SDS011;22913;51.910;8.374;2023-04-03T09:20:24;2.23;;;1.83;;
37001;SDS011;22913;51.910;8.374;2023-04-03T09:23:22;3.37;;;1.70;;
37001;SDS011;22913;51.910;8.374;2023-04-03T09:26:13;2.50;;;1.60;;
37001;SDS011;22913;51.910;8.374;2023-04-03T09:29:02;2.47;;;1.60;;
37001;SDS011;22913;51.910;8.374;2023-04-03T09:31:52;3.47;;;1.17;;
37001;SDS011;22913;51.910;8.374;2023-04-03T09:34:42;10.50;;;1.67;;
37001;SDS011;22913;51.910;8.374;2023-04-03T09:37:37;2.20;;;1.33;;
37001;SDS011;22913;51.910;8.374;2023-04-03T09:40:35;6.47;;;1.70;;
37001;SDS011;22913;51.910;8.374;2023-04-03T09:43:27;2.93;;;1.30;;
37001;SDS011;22913;51.910;8.374;2023-04-03T09:46:20;4.67;;;1.67;;
37001;SDS011;22913;51.910;8.374;2023-04-03T09:49:13;3.50;;;1.50;;
37001;SDS011;22913;51.910;8.374;2023-04-03T09:52:05;4.47;;;1.43;;
37001;SDS011;22913;51.910;8.374;2023-04-03T09:55:07;2.00;;;1.30;;
37001;SDS011;22913;51.910;8.374;2023-04-03T09:57:59;3.07;;;1.40;;
37001;SDS011;22913;51.910;8.374;2023-04-03T10:00:45;3.47;;;1.67;;
37001;SDS011;22913;51.910;8.374;2023-04-03T10:03:39;3.07;;;1.43;;
37001;SDS011;22913;51.910;8.374;2023-04-03T10:06:31;1.93;;;1.20;;
37001;SDS011;22913;51.910;8.374;2023-04-03T10:09:19;2.27;;;1.60;;
37001;SDS011;22913;51.910;8.374;2023-04-03T10:12:08;5.43;;;4.07;;
37001;SDS011;22913;51.910;8.374;2023-04-03T10:14:56;3.80;;;1.30;;
37001;SDS011;22913;51.910;8.374;2023-04-03T10:17:47;1.97;;;1.23;;
37001;SDS011;22913;51.910;8.374;2023-04-03T10:20:43;1.90;;;1.30;;
37001;SDS011;22913;51.910;8.374;2023-04-03T10:23:36;1.90;;;1.80;;
37001;SDS011;22913;51.910;8.374;2023-04-03T10:26:32;9.87;;;7.20;;
37001;SDS011;22913;51.910;8.374;2023-04-03T10:29:29;10.53;;;8.00;;
37001;SDS011;22913;51.910;8.374;2023-04-03T10:32:31;3.60;;;2.87;;
37001;SDS011;22913;51.910;8.374;2023-04-03T10:35:32;3.17;;;1.33;;
37001;SDS011;22913;51.910;8.374;2023-04-03T10:38:31;3.97;;;1.80;;
37001;SDS011;22913;51.910;8.374;2023-04-03T10:41:29;4.33;;;1.90;;
37001;SDS011;22913;51.910;8.374;2023-04-03T10:44:20;3.20;;;1.77;;
37001;SDS011;22913;51.910;8.374;2023-04-03T10:47:20;2.73;;;1.53;;
37001;SDS011;22913;51.910;8.374;2023-04-03T10:50:15;2.60;;;1.43;;
37001;SDS011;22913;51.910;8.374;2023-04-03T10:53:23;2.40;;;1.10;;
37001;SDS011;22913;51.910;8.374;2023-04-03T10:56:18;5.57;;;1.43;;
37001;SDS011;22913;51.910;8.374;2023-04-03T10:59:11;4.37;;;1.77;;
37001;SDS011;22913;51.910;8.374;2023-04-03T11:02:04;3.20;;;1.40;;
37001;SDS011;22913;51.910;8.374;2023-04-03T11:04:53;5.87;;;1.47;;
37001;SDS011;22913;51.910;8.374;2023-04-03T11:07:45;4.17;;;3.03;;
37001;SDS011;22913;51.910;8.374;2023-04-03T11:10:36;3.07;;;2.77;;
37001;SDS011;22913;51.910;8.374;2023-04-03T11:13:26;2.77;;;1.60;;
37001;SDS011;22913;51.910;8.374;2023-04-03T11:16:19;9.67;;;8.30;;
37001;SDS011;22913;51.910;8.374;2023-04-03T11:19:11;6.90;;;5.67;;
37001;SDS011;22913;51.910;8.374;2023-04-03T11:22:08;5.63;;;4.87;;
37001;SDS011;22913;51.910;8.374;2023-04-03T11:25:03;5.57;;;3.17;;
37001;SDS011;22913;51.910;8.374;2023-04-03T11:27:54;5.97;;;4.90;;
37001;SDS011;22913;51.910;8.374;2023-04-03T11:30:43;9.70;;;7.90;;
37001;SDS011;22913;51.910;8.374;2023-04-03T11:33:41;6.17;;;3.93;;
37001;SDS011;22913;51.910;8.374;2023-04-03T11:36:38;1.73;;;1.60;;
37001;SDS011;22913;51.910;8.374;2023-04-03T11:39:28;3.20;;;1.17;;
37001;SDS011;22913;51.910;8.374;2023-04-03T11:42:20;2.10;;;1.50;;
37001;SDS011;22913;51.910;8.374;2023-04-03T11:45:16;3.17;;;1.90;;
37001;SDS011;22913;51.910;8.374;2023-04-03T11:51:42;4.50;;;4.07;;
37001;SDS011;22913;51.910;8.374;2023-04-03T11:54:45;4.53;;;3.80;;
37001;SDS011;22913;51.910;8.374;2023-04-03T11:57:44;4.90;;;3.60;;
37001;SDS011;22913;51.910;8.374;2023-04-03T12:10:14;3.30;;;1.63;;
37001;SDS011;22913;51.910;8.374;2023-04-03T12:13:12;2.57;;;1.90;;
37001;SDS011;22913;51.910;8.374;2023-04-03T12:16:02;3.50;;;1.70;;
37001;SDS011;22913;51.910;8.374;2023-04-03T12:18:55;1.53;;;1.30;;
37001;SDS011;22913;51.910;8.374;2023-04-03T12:24:56;1.27;;;1.17;;
37001;SDS011;22913;51.910;8.374;2023-04-03T12:27:42;2.80;;;1.80;;
37001;SDS011;22913;51.910;8.374;2023-04-03T12:30:29;2.37;;;1.53;;
37001;SDS011;22913;51.910;8.374;2023-04-03T12:33:20;3.07;;;1.90;;
37001;SDS011;22913;51.910;8.374;2023-04-03T12:36:13;2.87;;;2.00;;
37001;SDS011;22913;51.910;8.374;2023-04-03T12:39:12;4.90;;;2.97;;
37001;SDS011;22913;51.910;8.374;2023-04-03T12:42:09;4.07;;;3.73;;
37001;SDS011;22913;51.910;8.374;2023-04-03T12:45:17;5.83;;;3.47;;
37001;SDS011;22913;51.910;8.374;2023-04-03T12:48:06;4.10;;;3.40;;
37001;SDS011;22913;51.910;8.374;2023-04-03T12:50:59;2.97;;;1.93;;
37001;SDS011;22913;51.910;8.374;2023-04-03T12:53:46;3.70;;;3.20;;
37001;SDS011;22913;51.910;8.374;2023-04-03T12:56:32;7.00;;;5.60;;
37001;SDS011;22913;51.910;8.374;2023-04-03T12:59:20;3.87;;;3.10;;
37001;SDS011;22913;51.910;8.374;2023-04-03T13:02:13;2.37;;;1.80;;
37001;SDS011;22913;51.910;8.374;2023-04-03T13:05:09;4.43;;;1.60;;
37001;SDS011;22913;51.910;8.374;2023-04-03T13:08:02;2.50;;;1.70;;
37001;SDS011;22913;51.910;8.374;2023-04-03T13:10:52;2.17;;;1.40;;
37001;SDS011;22913;51.910;8.374;2023-04-03T13:13:42;2.23;;;1.60;;
37001;SDS011;22913;51.910;8.374;2023-04-03T13:16:41;1.80;;;1.40;;
37001;SDS011;22913;51.910;8.374;2023-04-03T13:19:27;4.77;;;1.80;;
37001;SDS011;22913;51.910;8.374;2023-04-03T13:22:21;1.80;;;1.60;;
37001;SDS011;22913;51.910;8.374;2023-04-03T13:25:13;2.90;;;1.37;;
37001;SDS011;22913;51.910;8.374;2023-04-03T13:28:00;2.90;;;1.67;;
37001;SDS011;22913;51.910;8.374;2023-04-03T13:30:56;1.97;;;1.73;;
37001;SDS011;22913;51.910;8.374;2023-04-03T13:33:55;3.10;;;1.53;;
37001;SDS011;22913;51.910;8.374;2023-04-03T13:36:43;2.30;;;1.60;;
37001;SDS011;22913;51.910;8.374;2023-04-03T13:39:31;2.70;;;1.80;;
37001;SDS011;22913;51.910;8.374;2023-04-03T13:42:21;2.03;;;1.70;;
37001;SDS011;22913;51.910;8.374;2023-04-03T13:45:16;2.67;;;2.13;;
37001;SDS011;22913;51.910;8.374;2023-04-03T13:48:09;6.90;;;4.93;;
37001;SDS011;22913;51.910;8.374;2023-04-03T13:51:03;4.03;;;3.63;;
37001;SDS011;22913;51.910;8.374;2023-04-03T13:53:51;2.00;;;1.90;;
37001;SDS011;22913;51.910;8.374;2023-04-03T13:56:39;2.37;;;1.83;;
37001;SDS011;22913;51.910;8.374;2023-04-03T13:59:27;1.93;;;1.77;;
37001;SDS011;22913;51.910;8.374;2023-04-03T14:02:16;3.43;;;3.13;;
37001;SDS011;22913;51.910;8.374;2023-04-03T14:05:05;1.70;;;1.40;;
37001;SDS011;22913;51.910;8.374;2023-04-03T14:07:53;4.10;;;2.50;;
37001;SDS011;22913;51.910;8.374;2023-04-03T14:10:40;2.47;;;2.20;;
37001;SDS011;22913;51.910;8.374;2023-04-03T14:13:29;2.07;;;1.57;;
37001;SDS011;22913;51.910;8.374;2023-04-03T14:16:18;4.43;;;3.80;;
37001;SDS011;22913;51.910;8.374;2023-04-03T14:19:05;3.50;;;3.20;;
37001;SDS011;22913;51.910;8.374;2023-04-03T14:21:51;3.37;;;2.30;;
37001;SDS011;22913;51.910;8.374;2023-04-03T14:24:39;9.20;;;8.30;;
37001;SDS011;22913;51.910;8.374;2023-04-03T14:27:27;2.37;;;2.17;;
37001;SDS011;22913;51.910;8.374;2023-04-03T14:30:14;2.07;;;1.87;;
37001;SDS011;22913;51.910;8.374;2023-04-03T14:33:03;2.63;;;1.83;;
37001;SDS011;22913;51.910;8.374;2023-04-03T14:35:49;2.20;;;1.53;;
37001;SDS011;22913;51.910;8.374;2023-04-03T14:38:34;2.97;;;1.83;;
37001;SDS011;22913;51.910;8.374;2023-04-03T14:41:22;2.33;;;1.37;;
37001;SDS011;22913;51.910;8.374;2023-04-03T14:44:10;1.63;;;1.40;;
37001;SDS011;22913;51.910;8.374;2023-04-03T14:46:55;2.63;;;1.63;;
37001;SDS011;22913;51.910;8.374;2023-04-03T14:49:41;4.77;;;4.30;;
37001;SDS011;22913;51.910;8.374;2023-04-03T14:52:28;6.60;;;6.00;;
37001;SDS011;22913;51.910;8.374;2023-04-03T14:55:16;2.67;;;2.00;;
37001;SDS011;22913;51.910;8.374;2023-04-03T14:58:04;3.63;;;1.60;;
37001;SDS011;22913;51.910;8.374;2023-04-03T15:00:49;1.77;;;1.50;;
37001;SDS011;22913;51.910;8.374;2023-04-03T15:03:35;3.97;;;2.20;;
37001;SDS011;22913;51.910;8.374;2023-04-03T15:06:20;2.30;;;1.70;;
37001;SDS011;22913;51.910;8.374;2023-04-03T15:09:09;2.20;;;1.73;;
37001;SDS011;22913;51.910;8.374;2023-04-03T15:12:04;2.83;;;1.90;;
37001;SDS011;22913;51.910;8.374;2023-04-03T15:14:51;2.20;;;1.73;;
37001;SDS011;22913;51.910;8.374;2023-04-03T15:17:37;3.03;;;1.40;;
37001;SDS011;22913;51.910;8.374;2023-04-03T15:20:24;5.07;;;4.47;;
37001;SDS011;22913;51.910;8.374;2023-04-03T15:23:11;4.27;;;3.67;;
37001;SDS011;22913;51.910;8.374;2023-04-03T15:25:59;3.40;;;2.90;;
37001;SDS011;22913;51.910;8.374;2023-04-03T15:28:45;1.97;;;1.73;;
37001;SDS011;22913;51.910;8.374;2023-04-03T15:31:33;1.97;;;1.80;;
37001;SDS011;22913;51.910;8.374;2023-04-03T15:34:18;3.10;;;2.50;;
37001;SDS011;22913;51.910;8.374;2023-04-03T15:37:04;1.73;;;1.60;;
37001;SDS011;22913;51.910;8.374;2023-04-03T15:39:50;6.47;;;5.00;;
37001;SDS011;22913;51.910;8.374;2023-04-03T15:42:36;2.10;;;1.73;;
37001;SDS011;22913;51.910;8.374;2023-04-03T15:45:22;3.57;;;2.50;;
37001;SDS011;22913;51.910;8.374;2023-04-03T15:48:09;5.07;;;4.20;;
37001;SDS011;22913;51.910;8.374;2023-04-03T15:50:55;3.37;;;2.10;;
37001;SDS011;22913;51.910;8.374;2023-04-03T15:53:41;3.67;;;2.10;;
37001;SDS011;22913;51.910;8.374;2023-04-03T15:56:27;2.60;;;1.60;;
37001;SDS011;22913;51.910;8.374;2023-04-03T15:59:12;3.80;;;1.60;;
37001;SDS011;22913;51.910;8.374;2023-04-03T16:01:58;2.13;;;1.40;;
37001;SDS011;22913;51.910;8.374;2023-04-03T16:04:47;2.10;;;1.50;;
37001;SDS011;22913;51.910;8.374;2023-04-03T16:07:33;2.73;;;1.60;;
37001;SDS011;22913;51.910;8.374;2023-04-03T16:10:19;5.50;;;1.60;;
37001;SDS011;22913;51.910;8.374;2023-04-03T16:13:05;2.40;;;1.47;;
37001;SDS011;22913;51.910;8.374;2023-04-03T16:15:51;1.47;;;1.37;;
37001;SDS011;22913;51.910;8.374;2023-04-03T16:18:36;1.67;;;1.23;;
37001;SDS011;22913;51.910;8.374;2023-04-03T16:21:24;2.47;;;1.50;;
37001;SDS011;22913;51.910;8.374;2023-04-03T16:24:10;2.10;;;1.57;;
37001;SDS011;22913;51.910;8.374;2023-04-03T16:26:55;3.90;;;1.50;;
37001;SDS011;22913;51.910;8.374;2023-04-03T16:29:42;2.60;;;1.77;;
37001;SDS011;22913;51.910;8.374;2023-04-03T16:32:29;1.77;;;1.67;;
37001;SDS011;22913;51.910;8.374;2023-04-03T16:35:16;2.33;;;1.60;;
37001;SDS011;22913;51.910;8.374;2023-04-03T16:38:03;5.10;;;2.30;;
37001;SDS011;22913;51.910;8.374;2023-04-03T16:40:49;3.80;;;1.67;;
37001;SDS011;22913;51.910;8.374;2023-04-03T16:43:36;1.87;;;1.30;;
37001;SDS011;22913;51.910;8.374;2023-04-03T16:46:21;5.00;;;1.60;;
37001;SDS011;22913;51.910;8.374;2023-04-03T16:49:07;3.73;;;1.60;;
37001;SDS011;22913;51.910;8.374;2023-04-03T16:51:53;3.73;;;1.43;;
37001;SDS011;22913;51.910;8.374;2023-04-03T16:54:40;1.73;;;1.27;;
37001;SDS011;22913;51.910;8.374;2023-04-03T16:57:26;1.83;;;1.50;;
37001;SDS011;22913;51.910;8.374;2023-04-03T17:00:12;3.57;;;1.50;;
37001;SDS011;22913;51.910;8.374;2023-04-03T17:02:58;1.40;;;1.30;;
37001;SDS011;22913;51.910;8.374;2023-04-03T17:05:46;5.20;;;2.20;;
37001;SDS011;22913;51.910;8.374;2023-04-03T17:08:32;5.37;;;3.30;;
37001;SDS011;22913;51.910;8.374;2023-04-03T17:11:19;3.27;;;2.37;;